sensor_id;sensor_type;location;lat;lon;timestamp;P1;durP1;ratioP1;P2;durP2;ratioP2
39698;SDS011;25372;50.582;12.250;2023-06-14T00:03:03;2.17;;;1.45;;
39698;SDS011;25372;50.582;12.250;2023-06-14T00:13:24;2.10;;;1.40;;
39698;SDS011;25372;50.582;12.250;2023-06-14T00:23:46;2.00;;;1.33;;
39698;SDS011;25372;50.582;12.250;2023-06-14T00:34:07;2.03;;;1.27;;
39698;SDS011;25372;50.582;12.250;2023-06-14T00:44:30;3.05;;;1.48;;
39698;SDS011;25372;50.582;12.250;2023-06-14T00:54:50;1.35;;;1.20;;
39698;SDS011;25372;50.582;12.250;2023-06-14T01:05:12;3.50;;;1.67;;
39698;SDS011;25372;50.582;12.250;2023-06-14T01:15:35;4.43;;;1.42;;
39698;SDS011;25372;50.582;12.250;2023-06-14T01:25:59;1.58;;;1.13;;
39698;SDS011;25372;50.582;12.250;2023-06-14T01:36:24;1.60;;;1.17;;
39698;SDS011;25372;50.582;12.250;2023-06-14T01:46:52;4.97;;;1.23;;
39698;SDS011;25372;50.582;12.250;2023-06-14T02:07:38;2.70;;;1.65;;
39698;SDS011;25372;50.582;12.250;2023-06-14T02:17:59;2.08;;;1.42;;
39698;SDS011;25372;50.582;12.250;2023-06-14T02:28:22;2.00;;;1.63;;
39698;SDS011;25372;50.582;12.250;2023-06-14T02:38:44;1.60;;;1.50;;
39698;SDS011;25372;50.582;12.250;2023-06-14T02:49:06;2.20;;;1.60;;
39698;SDS011;25372;50.582;12.250;2023-06-14T02:59:27;2.45;;;1.65;;
39698;SDS011;25372;50.582;12.250;2023-06-14T03:09:51;2.38;;;1.60;;
39698;SDS011;25372;50.582;12.250;2023-06-14T03:20:13;2.88;;;1.67;;
39698;SDS011;25372;50.582;12.250;2023-06-14T03:30:36;2.55;;;1.48;;
39698;SDS011;25372;50.582;12.250;2023-06-14T03:40:58;2.55;;;1.83;;
39698;SDS011;25372;50.582;12.250;2023-06-14T03:51:20;2.72;;;2.28;;
39698;SDS011;25372;50.582;12.250;2023-06-14T04:01:42;3.30;;;2.05;;
39698;SDS011;25372;50.582;12.250;2023-06-14T04:12:07;2.80;;;2.33;;
39698;SDS011;25372;50.582;12.250;2023-06-14T04:22:28;1.58;;;1.48;;
39698;SDS011;25372;50.582;12.250;2023-06-14T04:32:52;4.63;;;2.42;;
39698;SDS011;25372;50.582;12.250;2023-06-14T04:43:15;5.93;;;2.27;;
39698;SDS011;25372;50.582;12.250;2023-06-14T04:53:40;1.70;;;1.60;;
39698;SDS011;25372;50.582;12.250;2023-06-14T05:04:01;2.50;;;1.90;;
39698;SDS011;25372;50.582;12.250;2023-06-14T05:14:24;3.40;;;2.10;;
39698;SDS011;25372;50.582;12.250;2023-06-14T05:24:45;3.28;;;1.60;;
39698;SDS011;25372;50.582;12.250;2023-06-14T05:35:09;1.88;;;1.38;;
39698;SDS011;25372;50.582;12.250;2023-06-14T05:45:30;3.83;;;2.35;;
39698;SDS011;25372;50.582;12.250;2023-06-14T05:55:52;2.13;;;1.75;;
39698;SDS011;25372;50.582;12.250;2023-06-14T06:06:14;2.38;;;2.08;;
39698;SDS011;25372;50.582;12.250;2023-06-14T06:16:37;3.58;;;2.63;;
39698;SDS011;25372;50.582;12.250;2023-06-14T06:26:58;2.63;;;1.88;;
39698;SDS011;25372;50.582;12.250;2023-06-14T06:37:20;5.25;;;2.28;;
39698;SDS011;25372;50.582;12.250;2023-06-14T06:47:41;4.47;;;2.30;;
39698;SDS011;25372;50.582;12.250;2023-06-14T06:58:03;3.10;;;2.17;;
39698;SDS011;25372;50.582;12.250;2023-06-14T07:08:25;4.55;;;2.88;;
39698;SDS011;25372;50.582;12.250;2023-06-14T07:18:47;3.75;;;2.63;;
39698;SDS011;25372;50.582;12.250;2023-06-14T07:29:08;2.28;;;2.05;;
39698;SDS011;25372;50.582;12.250;2023-06-14T07:39:30;2.83;;;2.20;;
39698;SDS011;25372;50.582;12.250;2023-06-14T07:49:51;3.10;;;2.20;;
39698;SDS011;25372;50.582;12.250;2023-06-14T08:00:13;3.03;;;1.95;;
39698;SDS011;25372;50.582;12.250;2023-06-14T08:10:34;1.83;;;1.55;;
39698;SDS011;25372;50.582;12.250;2023-06-14T08:20:56;2.67;;;1.83;;
39698;SDS011;25372;50.582;12.250;2023-06-14T08:31:17;3.08;;;1.40;;
39698;SDS011;25372;50.582;12.250;2023-06-14T08:41:40;3.22;;;1.50;;
39698;SDS011;25372;50.582;12.250;2023-06-14T08:52:00;1.08;;;1.02;;
39698;SDS011;25372;50.582;12.250;2023-06-14T09:02:22;1.92;;;1.58;;
39698;SDS011;25372;50.582;12.250;2023-06-14T09:12:44;1.63;;;1.27;;
39698;SDS011;25372;50.582;12.250;2023-06-14T09:23:08;1.45;;;1.33;;
39698;SDS011;25372;50.582;12.250;2023-06-14T09:33:30;1.83;;;1.30;;
39698;SDS011;25372;50.582;12.250;2023-06-14T09:43:53;3.05;;;1.67;;
39698;SDS011;25372;50.582;12.250;2023-06-14T09:54:18;2.53;;;1.50;;
39698;SDS011;25372;50.582;12.250;2023-06-14T10:04:46;5.45;;;1.88;;
39698;SDS011;25372;50.582;12.250;2023-06-14T10:15:11;2.28;;;1.98;;
39698;SDS011;25372;50.582;12.250;2023-06-14T10:25:38;1.67;;;1.38;;
39698;SDS011;25372;50.582;12.250;2023-06-14T10:36:09;3.95;;;1.67;;
39698;SDS011;25372;50.582;12.250;2023-06-14T10:46:32;2.15;;;1.70;;
39698;SDS011;25372;50.582;12.250;2023-06-14T10:56:53;4.35;;;2.00;;
39698;SDS011;25372;50.582;12.250;2023-06-14T11:07:21;1.08;;;1.05;;
39698;SDS011;25372;50.582;12.250;2023-06-14T11:18:00;1.95;;;1.50;;
39698;SDS011;25372;50.582;12.250;2023-06-14T11:28:23;2.28;;;1.58;;
39698;SDS011;25372;50.582;12.250;2023-06-14T11:38:44;2.35;;;1.50;;
39698;SDS011;25372;50.582;12.250;2023-06-14T11:49:07;4.35;;;2.53;;
39698;SDS011;25372;50.582;12.250;2023-06-14T11:59:29;2.42;;;1.95;;
39698;SDS011;25372;50.582;12.250;2023-06-14T12:10:08;2.22;;;1.48;;
39698;SDS011;25372;50.582;12.250;2023-06-14T12:20:30;1.45;;;1.35;;
39698;SDS011;25372;50.582;12.250;2023-06-14T12:30:52;2.22;;;1.67;;
39698;SDS011;25372;50.582;12.250;2023-06-14T12:41:14;3.03;;;2.03;;
39698;SDS011;25372;50.582;12.250;2023-06-14T12:51:36;6.57;;;2.10;;
39698;SDS011;25372;50.582;12.250;2023-06-14T13:01:58;4.70;;;2.03;;
39698;SDS011;25372;50.582;12.250;2023-06-14T13:12:21;2.10;;;1.73;;
39698;SDS011;25372;50.582;12.250;2023-06-14T13:22:42;1.40;;;1.30;;
39698;SDS011;25372;50.582;12.250;2023-06-14T13:33:04;1.98;;;1.50;;
39698;SDS011;25372;50.582;12.250;2023-06-14T13:43:25;1.42;;;1.33;;
39698;SDS011;25372;50.582;12.250;2023-06-14T13:53:47;4.63;;;1.80;;
39698;SDS011;25372;50.582;12.250;2023-06-14T14:04:08;1.88;;;1.63;;
39698;SDS011;25372;50.582;12.250;2023-06-14T14:14:31;2.15;;;1.80;;
39698;SDS011;25372;50.582;12.250;2023-06-14T14:24:53;3.22;;;1.85;;
39698;SDS011;25372;50.582;12.250;2023-06-14T14:35:15;1.42;;;1.10;;
39698;SDS011;25372;50.582;12.250;2023-06-14T14:45:36;1.98;;;1.38;;
39698;SDS011;25372;50.582;12.250;2023-06-14T14:55:59;1.98;;;1.42;;
39698;SDS011;25372;50.582;12.250;2023-06-14T15:06:20;1.40;;;1.27;;
39698;SDS011;25372;50.582;12.250;2023-06-14T15:16:42;2.33;;;1.70;;
39698;SDS011;25372;50.582;12.250;2023-06-14T15:27:03;2.20;;;1.65;;
39698;SDS011;25372;50.582;12.250;2023-06-14T15:37:25;1.30;;;1.20;;
39698;SDS011;25372;50.582;12.250;2023-06-14T15:47:46;1.50;;;1.20;;
39698;SDS011;25372;50.582;12.250;2023-06-14T15:58:08;2.70;;;1.80;;
39698;SDS011;25372;50.582;12.250;2023-06-14T16:08:29;2.72;;;1.83;;
39698;SDS011;25372;50.582;12.250;2023-06-14T16:18:50;4.75;;;1.85;;
39698;SDS011;25372;50.582;12.250;2023-06-14T16:29:11;2.63;;;1.98;;
39698;SDS011;25372;50.582;12.250;2023-06-14T16:39:34;2.22;;;1.50;;
39698;SDS011;25372;50.582;12.250;2023-06-14T16:49:55;2.47;;;2.05;;
39698;SDS011;25372;50.582;12.250;2023-06-14T17:00:18;3.05;;;2.13;;
39698;SDS011;25372;50.582;12.250;2023-06-14T17:10:39;4.05;;;1.90;;
39698;SDS011;25372;50.582;12.250;2023-06-14T17:21:01;3.40;;;2.05;;
39698;SDS011;25372;50.582;12.250;2023-06-14T17:31:22;2.92;;;2.20;;
39698;SDS011;25372;50.582;12.250;2023-06-14T17:41:45;3.25;;;2.67;;
39698;SDS011;25372;50.582;12.250;2023-06-14T17:52:06;2.47;;;1.73;;
39698;SDS011;25372;50.582;12.250;2023-06-14T18:02:28;1.92;;;1.70;;
39698;SDS011;25372;50.582;12.250;2023-06-14T18:12:51;2.97;;;2.10;;
39698;SDS011;25372;50.582;12.250;2023-06-14T18:23:14;1.80;;;1.70;;
39698;SDS011;25372;50.582;12.250;2023-06-14T18:33:34;2.95;;;1.90;;
39698;SDS011;25372;50.582;12.250;2023-06-14T18:43:56;2.20;;;1.77;;
39698;SDS011;25372;50.582;12.250;2023-06-14T18:54:18;2.67;;;1.95;;
39698;SDS011;25372;50.582;12.250;2023-06-14T19:04:40;2.38;;;1.63;;
39698;SDS011;25372;50.582;12.250;2023-06-14T19:15:00;2.50;;;2.15;;
39698;SDS011;25372;50.582;12.250;2023-06-14T19:25:22;4.35;;;1.88;;
39698;SDS011;25372;50.582;12.250;2023-06-14T19:35:43;3.05;;;2.05;;
39698;SDS011;25372;50.582;12.250;2023-06-14T19:46:05;3.65;;;2.33;;
39698;SDS011;25372;50.582;12.250;2023-06-14T19:56:26;4.38;;;2.38;;
39698;SDS011;25372;50.582;12.250;2023-06-14T20:06:48;5.38;;;3.33;;
39698;SDS011;25372;50.582;12.250;2023-06-14T20:17:14;5.18;;;2.72;;
39698;SDS011;25372;50.582;12.250;2023-06-14T20:27:36;7.40;;;3.97;;
39698;SDS011;25372;50.582;12.250;2023-06-14T20:37:57;5.32;;;2.80;;
39698;SDS011;25372;50.582;12.250;2023-06-14T20:48:19;3.85;;;2.05;;
39698;SDS011;25372;50.582;12.250;2023-06-14T20:58:40;4.97;;;2.92;;
39698;SDS011;25372;50.582;12.250;2023-06-14T21:09:02;3.22;;;2.53;;
39698;SDS011;25372;50.582;12.250;2023-06-14T21:19:23;5.57;;;2.80;;
39698;SDS011;25372;50.582;12.250;2023-06-14T21:29:46;3.60;;;2.78;;
39698;SDS011;25372;50.582;12.250;2023-06-14T21:40:09;5.82;;;2.80;;
39698;SDS011;25372;50.582;12.250;2023-06-14T21:50:32;2.80;;;2.13;;
39698;SDS011;25372;50.582;12.250;2023-06-14T22:00:52;5.15;;;2.75;;
39698;SDS011;25372;50.582;12.250;2023-06-14T22:11:15;9.27;;;3.95;;
39698;SDS011;25372;50.582;12.250;2023-06-14T22:21:35;7.25;;;3.88;;
39698;SDS011;25372;50.582;12.250;2023-06-14T22:31:58;11.30;;;4.43;;
39698;SDS011;25372;50.582;12.250;2023-06-14T22:42:18;8.65;;;4.45;;
39698;SDS011;25372;50.582;12.250;2023-06-14T22:52:40;9.55;;;4.20;;
39698;SDS011;25372;50.582;12.250;2023-06-14T23:03:03;10.30;;;3.80;;
39698;SDS011;25372;50.582;12.250;2023-06-14T23:13:27;6.40;;;3.25;;
39698;SDS011;25372;50.582;12.250;2023-06-14T23:23:48;8.70;;;3.15;;
39698;SDS011;25372;50.582;12.250;2023-06-14T23:34:11;5.57;;;3.28;;
39698;SDS011;25372;50.582;12.250;2023-06-14T23:44:31;9.40;;;3.17;;
39698;SDS011;25372;50.582;12.250;2023-06-14T23:54:57;4.10;;;3.17;;
